Council Grove, KS (66846)

5:14 AM CST on February 10, 2016 (GMT -0600)
Timmerman School Area | | Change Station
CLOSE
Current Station
Personal Weather Station
Location: Emporia, KS
Elevation: 1214 ft
Nearby Weather Stations

Elev 1214 ft 38.43 °N, 96.22 °W | Updated 5 seconds ago

Overcast
Overcast
23.5 °F
Feels Like 17 °F
N
5.1
Wind Variable Wind from South
Gusts 7.4 mph

Today
High -- | Low -- °F
--% Chance of Precip.
Yesterday
High -- | Low -- °F
Precip. -- in
Pressure 30.23 in
Visibility 10.0 miles
Clouds Overcast 9000 ft
Windchill 17 °F
Dew Point -11 °F
Humidity 21%
Rainfall 0.00 in
Snow Depth Not available.
7:23 AM 5:57 PM
Waxing Crescent, 5% visible
METAR KEMP 101053Z AUTO 19007KT 10SM OVC090 M03/M09 A3018 RMK AO2 SLP235 T10331094
Pressure 30.23 in
Visibility 10.0 miles
Clouds Overcast 9000 ft
Windchill 17 °F
Dew Point -11 °F
Humidity 21%
Rainfall 0.00 in
Snow Depth Not available.
7:23 AM 5:57 PM
Waxing Crescent, 5% visible
METAR KEMP 101053Z AUTO 19007KT 10SM OVC090 M03/M09 A3018 RMK AO2 SLP235 T10331094

10-Day Weather Forecast

Almanac

Astronomy

Feb. 10, 2016 Rise Set
Actual Time
Civil Twilight
Nautical Twilight
Astronomical Twilight
Moon
Length of Visible Light
Length of Day
Tomorrow will be .
, % of the Moon is Illuminated

Today's Extremes

State Highs State Lows

Community

WunderPhotos

Upload Photos

1,891,830 photos uploaded!

WunderBlog® & News

Nearby

Air Quality

  Air Quality AQ Index Pollutant
Not available.

Snow Depth

Station Depth Elevation

Earthquake Activity

City Distance Mag. Time & Date
Minimum magnitude displayed is 2.5.

Coastal Water Temperatures

Place Temperature

Stations

Nearby Weather Stations

Station Location Temp. Windchill Dew Point Humidity Wind Precip. Elev Updated Type
                   

Watches & Warnings

There are currently no watches in effect.